sensor_id;sensor_type;location;lat;lon;timestamp;pressure;altitude;pressure_sealevel;temperature;humidity
61500;BME280;47361;49.996;19.918;2023-08-12T00:01:05;99365.09999999999;;;15.6;71
61500;BME280;47361;49.996;19.918;2023-08-12T00:06:05;99363.01;;;15.5;71
61500;BME280;47361;49.996;19.918;2023-08-12T00:09:05;99363.9;;;15.6;71
61500;BME280;47361;49.996;19.918;2023-08-12T00:10:05;99363.81999999999;;;15.5;71
61500;BME280;47361;49.996;19.918;2023-08-12T00:12:05;99358.87;;;15.4;71
61500;BME280;47361;49.996;19.918;2023-08-12T00:14:05;99355.03;;;15.5;71
61500;BME280;47361;49.996;19.918;2023-08-12T00:16:05;99354.13;;;15.4;71
61500;BME280;47361;49.996;19.918;2023-08-12T00:22:05;99348.15;;;15.3;71
61500;BME280;47361;49.996;19.918;2023-08-12T00:26:05;99349.36;;;15.2;72
61500;BME280;47361;49.996;19.918;2023-08-12T00:31:05;99344.84;;;15.1;72
61500;BME280;47361;49.996;19.918;2023-08-12T00:34:05;99336.77;;;15.2;72
61500;BME280;47361;49.996;19.918;2023-08-12T00:35:05;99340.36;;;15.1;72
61500;BME280;47361;49.996;19.918;2023-08-12T00:38:05;99338.78;;;15.2;72
61500;BME280;47361;49.996;19.918;2023-08-12T00:46:05;99341.49;;;15.1;72
61500;BME280;47361;49.996;19.918;2023-08-12T00:50:05;99339.79000000001;;;15.0;71
61500;BME280;47361;49.996;19.918;2023-08-12T00:51:05;99338.79;;;14.9;72
61500;BME280;47361;49.996;19.918;2023-08-12T01:01:05;99331.55;;;14.8;72
61500;BME280;47361;49.996;19.918;2023-08-12T01:03:05;99330.3;;;14.9;72
61500;BME280;47361;49.996;19.918;2023-08-12T01:06:05;99326.95999999999;;;14.8;72
61500;BME280;47361;49.996;19.918;2023-08-12T01:07:05;99328.89;;;14.7;72
61500;BME280;47361;49.996;19.918;2023-08-12T01:09:05;99328.14;;;14.8;72
61500;BME280;47361;49.996;19.918;2023-08-12T01:12:06;99328.91;;;14.7;72
61500;BME280;47361;49.996;19.918;2023-08-12T01:14:07;99331.75;;;14.8;72
61500;BME280;47361;49.996;19.918;2023-08-12T01:17:05;99328.64;;;14.7;72
61500;BME280;47361;49.996;19.918;2023-08-12T01:18:05;99327.20000000001;;;14.8;72
61500;BME280;47361;49.996;19.918;2023-08-12T01:22:06;99326.34000000001;;;14.7;71
61500;BME280;47361;49.996;19.918;2023-08-12T01:23:07;99325.92;;;14.6;71
61500;BME280;47361;49.996;19.918;2023-08-12T01:26:05;99325.84000000001;;;14.5;72
61500;BME280;47361;49.996;19.918;2023-08-12T01:28:05;99328.77;;;14.4;72
61500;BME280;47361;49.996;19.918;2023-08-12T01:31:06;99335.11;;;14.3;72
61500;BME280;47361;49.996;19.918;2023-08-12T01:34:06;99335.82;;;14.2;72
61500;BME280;47361;49.996;19.918;2023-08-12T01:39:05;99336.05;;;14.3;73
61500;BME280;47361;49.996;19.918;2023-08-12T01:43:05;99333.33;;;14.4;73
61500;BME280;47361;49.996;19.918;2023-08-12T01:50:05;99335.06999999999;;;14.3;72
61500;BME280;47361;49.996;19.918;2023-08-12T01:52:05;99340.55;;;14.2;72
61500;BME280;47361;49.996;19.918;2023-08-12T01:54:05;99339.42;;;14.1;72
61500;BME280;47361;49.996;19.918;2023-08-12T01:56:05;99341.54999999999;;;14.0;72
61500;BME280;47361;49.996;19.918;2023-08-12T01:57:05;99340.22;;;13.9;73
61500;BME280;47361;49.996;19.918;2023-08-12T01:58:05;99339.47;;;14.0;73
61500;BME280;47361;49.996;19.918;2023-08-12T02:01:05;99343.56;;;14.1;73
61500;BME280;47361;49.996;19.918;2023-08-12T02:02:05;99343.26;;;14.0;73
61500;BME280;47361;49.996;19.918;2023-08-12T02:03:05;99339.37;;;14.1;73
61500;BME280;47361;49.996;19.918;2023-08-12T02:06:05;99346.02;;;14.0;72
61500;BME280;47361;49.996;19.918;2023-08-12T02:09:05;99349.75;;;13.9;72
61500;BME280;47361;49.996;19.918;2023-08-12T02:11:05;99343.64;;;13.8;73
61500;BME280;47361;49.996;19.918;2023-08-12T02:12:06;99342.19;;;13.6;73
61500;BME280;47361;49.996;19.918;2023-08-12T02:15:05;99340.55;;;13.5;74
61500;BME280;47361;49.996;19.918;2023-08-12T02:16:05;99342.04999999999;;;13.4;74
61500;BME280;47361;49.996;19.918;2023-08-12T02:19:05;99351.2;;;13.3;74
61500;BME280;47361;49.996;19.918;2023-08-12T02:22:05;99346.93;;;13.4;75
61500;BME280;47361;49.996;19.918;2023-08-12T02:24:06;99343.14;;;13.5;74
61500;BME280;47361;49.996;19.918;2023-08-12T02:27:05;99344.55;;;13.4;74
61500;BME280;47361;49.996;19.918;2023-08-12T02:28:05;99343.57;;;13.5;74
61500;BME280;47361;49.996;19.918;2023-08-12T02:29:05;99344.05;;;13.4;74
61500;BME280;47361;49.996;19.918;2023-08-12T02:38:05;99354.53;;;13.5;74
61500;BME280;47361;49.996;19.918;2023-08-12T02:42:05;99356.09;;;13.4;74
61500;BME280;47361;49.996;19.918;2023-08-12T02:43:05;99354.22;;;13.5;74
61500;BME280;47361;49.996;19.918;2023-08-12T02:44:05;99357.79;;;13.6;74
61500;BME280;47361;49.996;19.918;2023-08-12T02:49:05;99357.37000000001;;;13.7;74
61500;BME280;47361;49.996;19.918;2023-08-12T02:51:05;99360.61;;;13.6;73
61500;BME280;47361;49.996;19.918;2023-08-12T02:58:05;99363.83;;;13.7;73
61500;BME280;47361;49.996;19.918;2023-08-12T03:00:06;99366.07;;;13.6;73
61500;BME280;47361;49.996;19.918;2023-08-12T03:02:05;99365.87;;;13.5;73
61500;BME280;47361;49.996;19.918;2023-08-12T03:03:05;99368.82;;;13.6;73
61500;BME280;47361;49.996;19.918;2023-08-12T03:05:05;99366.89;;;13.5;73
61500;BME280;47361;49.996;19.918;2023-08-12T03:06:05;99369.75;;;13.4;73
61500;BME280;47361;49.996;19.918;2023-08-12T03:10:06;99367.35;;;13.3;73
61500;BME280;47361;49.996;19.918;2023-08-12T03:13:05;99367.71;;;13.4;73
61500;BME280;47361;49.996;19.918;2023-08-12T03:15:06;99367.02;;;13.3;73
61500;BME280;47361;49.996;19.918;2023-08-12T03:17:05;99369.64;;;13.2;73
61500;BME280;47361;49.996;19.918;2023-08-12T03:18:05;99371.34;;;13.3;73
61500;BME280;47361;49.996;19.918;2023-08-12T03:19:05;99368.19;;;13.2;73
61500;BME280;47361;49.996;19.918;2023-08-12T03:21:06;99365.67;;;13.1;74
61500;BME280;47361;49.996;19.918;2023-08-12T03:25:06;99373.28;;;13.0;74
61500;BME280;47361;49.996;19.918;2023-08-12T03:27:05;99368.31;;;12.9;74
61500;BME280;47361;49.996;19.918;2023-08-12T03:28:05;99375.27;;;13.0;74
61500;BME280;47361;49.996;19.918;2023-08-12T03:30:06;99373.72;;;12.9;74
61500;BME280;47361;49.996;19.918;2023-08-12T03:36:05;99381.58;;;12.8;75
61500;BME280;47361;49.996;19.918;2023-08-12T03:40:06;99382.75;;;12.7;75
61500;BME280;47361;49.996;19.918;2023-08-12T03:42:05;99385.27;;;12.6;76
61500;BME280;47361;49.996;19.918;2023-08-12T03:43:05;99387.81;;;12.7;75
61500;BME280;47361;49.996;19.918;2023-08-12T03:45:06;99390.78;;;12.6;76
61500;BME280;47361;49.996;19.918;2023-08-12T03:53:05;99389.57;;;12.7;76
61500;BME280;47361;49.996;19.918;2023-08-12T03:54:05;99387.97;;;12.8;76
61500;BME280;47361;49.996;19.918;2023-08-12T04:03:05;99379.64;;;12.9;76
61500;BME280;47361;49.996;19.918;2023-08-12T04:08:05;99377.28;;;13.1;76
61500;BME280;47361;49.996;19.918;2023-08-12T04:11:05;99375.16;;;13.0;75
61500;BME280;47361;49.996;19.918;2023-08-12T04:14:05;99373.65999999999;;;12.9;76
61500;BME280;47361;49.996;19.918;2023-08-12T04:17:05;99372.25;;;12.8;76
61500;BME280;47361;49.996;19.918;2023-08-12T04:18:05;99371.7;;;12.9;76
61500;BME280;47361;49.996;19.918;2023-08-12T04:23:05;99371.56;;;13.0;77
61500;BME280;47361;49.996;19.918;2023-08-12T04:28:05;99369.92;;;13.1;77
61500;BME280;47361;49.996;19.918;2023-08-12T04:29:05;99370.79;;;13.2;77
61500;BME280;47361;49.996;19.918;2023-08-12T04:33:05;99378.5;;;13.4;77
61500;BME280;47361;49.996;19.918;2023-08-12T04:38:05;99373.6;;;13.5;76
61500;BME280;47361;49.996;19.918;2023-08-12T04:41:05;99371.04000000001;;;13.4;76
61500;BME280;47361;49.996;19.918;2023-08-12T04:46:05;99375.56;;;13.3;76
61500;BME280;47361;49.996;19.918;2023-08-12T04:48:06;99375.69;;;13.4;77
61500;BME280;47361;49.996;19.918;2023-08-12T04:49:05;99378.8;;;13.3;77
61500;BME280;47361;49.996;19.918;2023-08-12T04:53:05;99374.13;;;13.4;77
61500;BME280;47361;49.996;19.918;2023-08-12T04:56:05;99382.9;;;13.5;77
61500;BME280;47361;49.996;19.918;2023-08-12T04:58:05;99384.84999999999;;;13.6;77
61500;BME280;47361;49.996;19.918;2023-08-12T05:01:05;99380.62999999999;;;13.7;77
61500;BME280;47361;49.996;19.918;2023-08-12T05:03:05;99381.59000000001;;;13.8;77
61500;BME280;47361;49.996;19.918;2023-08-12T05:04:05;99384.72;;;13.9;77
61500;BME280;47361;49.996;19.918;2023-08-12T05:07:05;99389.09;;;14.0;77
61500;BME280;47361;49.996;19.918;2023-08-12T05:08:05;99385.92;;;14.1;77
61500;BME280;47361;49.996;19.918;2023-08-12T05:12:06;99389.64;;;14.2;77
61500;BME280;47361;49.996;19.918;2023-08-12T05:13:05;99386.29;;;14.3;77
61500;BME280;47361;49.996;19.918;2023-08-12T05:15:06;99384.33;;;14.4;77
61500;BME280;47361;49.996;19.918;2023-08-12T05:18:05;99385.96;;;14.6;76
61500;BME280;47361;49.996;19.918;2023-08-12T05:22:05;99382.43;;;14.7;76
61500;BME280;47361;49.996;19.918;2023-08-12T05:23:05;99383.54000000001;;;14.8;75
61500;BME280;47361;49.996;19.918;2023-08-12T05:26:05;99381.42;;;14.9;76
61500;BME280;47361;49.996;19.918;2023-08-12T05:28:05;99378.78;;;15.0;75
61500;BME280;47361;49.996;19.918;2023-08-12T05:29:05;99376.2;;;15.1;75
61500;BME280;47361;49.996;19.918;2023-08-12T05:33:05;99379.69;;;15.2;74
61500;BME280;47361;49.996;19.918;2023-08-12T05:38:05;99382.48;;;15.3;74
61500;BME280;47361;49.996;19.918;2023-08-12T05:40:07;99383.13;;;15.4;75
61500;BME280;47361;49.996;19.918;2023-08-12T05:42:05;99377.67;;;15.5;75
61500;BME280;47361;49.996;19.918;2023-08-12T05:43:05;99379.54999999999;;;15.6;74
61500;BME280;47361;49.996;19.918;2023-08-12T05:47:05;99374.8;;;15.7;75
61500;BME280;47361;49.996;19.918;2023-08-12T05:48:05;99375.98000000001;;;15.8;75
61500;BME280;47361;49.996;19.918;2023-08-12T05:50:06;99372.52;;;15.9;74
61500;BME280;47361;49.996;19.918;2023-08-12T05:53:05;99377.62;;;16.0;74
61500;BME280;47361;49.996;19.918;2023-08-12T05:55:06;99374.06;;;16.1;74
61500;BME280;47361;49.996;19.918;2023-08-12T05:57:05;99371.51;;;16.2;74
61500;BME280;47361;49.996;19.918;2023-08-12T05:58:05;99373.58;;;16.3;74
61500;BME280;47361;49.996;19.918;2023-08-12T06:00:06;99374.36;;;16.4;73
61500;BME280;47361;49.996;19.918;2023-08-12T06:02:05;99374.03;;;16.5;73
61500;BME280;47361;49.996;19.918;2023-08-12T06:03:05;99374.19;;;16.6;73
61500;BME280;47361;49.996;19.918;2023-08-12T06:06:05;99371.36;;;16.7;73
61500;BME280;47361;49.996;19.918;2023-08-12T06:08:05;99369.75;;;16.8;72
61500;BME280;47361;49.996;19.918;2023-08-12T06:12:06;99365.34;;;16.9;71
61500;BME280;47361;49.996;19.918;2023-08-12T06:14:05;99365.23;;;17.0;71
61500;BME280;47361;49.996;19.918;2023-08-12T06:17:05;99361.15999999999;;;17.1;71
61500;BME280;47361;49.996;19.918;2023-08-12T06:18:05;99359.69;;;17.2;71
61500;BME280;47361;49.996;19.918;2023-08-12T06:20:06;99362.81;;;17.3;71
61500;BME280;47361;49.996;19.918;2023-08-12T06:22:05;99365.06000000001;;;17.4;71
61500;BME280;47361;49.996;19.918;2023-08-12T06:24:06;99361.64;;;17.5;71
61500;BME280;47361;49.996;19.918;2023-08-12T06:27:05;99359.27;;;17.6;70
61500;BME280;47361;49.996;19.918;2023-08-12T06:32:05;99363.12000000001;;;17.7;69
61500;BME280;47361;49.996;19.918;2023-08-12T06:34:05;99361.49;;;17.8;69
61500;BME280;47361;49.996;19.918;2023-08-12T06:37:05;99366.24;;;17.9;68
61500;BME280;47361;49.996;19.918;2023-08-12T06:39:05;99361.75;;;18.0;67
61500;BME280;47361;49.996;19.918;2023-08-12T06:42:05;99355.81;;;18.1;68
61500;BME280;47361;49.996;19.918;2023-08-12T06:44:05;99357.92;;;18.2;66
61500;BME280;47361;49.996;19.918;2023-08-12T06:46:05;99358.29;;;18.3;67
61500;BME280;47361;49.996;19.918;2023-08-12T06:48:05;99360.94;;;18.4;68
61500;BME280;47361;49.996;19.918;2023-08-12T06:49:06;99362.36;;;18.5;68
61500;BME280;47361;49.996;19.918;2023-08-12T06:51:05;99361.0;;;18.6;66
61500;BME280;47361;49.996;19.918;2023-08-12T06:52:05;99359.53;;;18.7;66
61500;BME280;47361;49.996;19.918;2023-08-12T06:53:05;99355.47;;;18.8;66
61500;BME280;47361;49.996;19.918;2023-08-12T06:55:06;99357.08;;;18.9;66
61500;BME280;47361;49.996;19.918;2023-08-12T06:57:05;99354.72;;;19.0;65
61500;BME280;47361;49.996;19.918;2023-08-12T06:58:05;99356.75;;;19.1;65
61500;BME280;47361;49.996;19.918;2023-08-12T07:02:06;99353.98;;;19.2;62
61500;BME280;47361;49.996;19.918;2023-08-12T07:07:05;99356.61;;;19.3;63
61500;BME280;47361;49.996;19.918;2023-08-12T07:09:05;99353.03;;;19.4;63
61500;BME280;47361;49.996;19.918;2023-08-12T07:12:06;99349.95999999999;;;19.5;61
61500;BME280;47361;49.996;19.918;2023-08-12T07:18:05;99351.67;;;19.6;59
61500;BME280;47361;49.996;19.918;2023-08-12T07:22:05;99351.73;;;19.7;58
61500;BME280;47361;49.996;19.918;2023-08-12T07:23:05;99355.02;;;19.8;59
61500;BME280;47361;49.996;19.918;2023-08-12T07:26:05;99355.11;;;19.9;59
61500;BME280;47361;49.996;19.918;2023-08-12T07:28:05;99352.42;;;20.0;59
61500;BME280;47361;49.996;19.918;2023-08-12T07:33:06;99348.03;;;20.1;59
61500;BME280;47361;49.996;19.918;2023-08-12T07:36:05;99352.29000000001;;;20.0;57
61500;BME280;47361;49.996;19.918;2023-08-12T07:37:05;99349.28;;;20.1;58
61500;BME280;47361;49.996;19.918;2023-08-12T07:41:05;99347.41;;;20.2;58
61500;BME280;47361;49.996;19.918;2023-08-12T07:43:05;99353.66;;;20.3;59
61500;BME280;47361;49.996;19.918;2023-08-12T07:46:05;99345.47;;;20.4;59
61500;BME280;47361;49.996;19.918;2023-08-12T07:47:05;99348.5;;;20.5;59
61500;BME280;47361;49.996;19.918;2023-08-12T07:50:06;99350.19;;;20.6;59
61500;BME280;47361;49.996;19.918;2023-08-12T07:52:05;99345.48;;;20.7;59
61500;BME280;47361;49.996;19.918;2023-08-12T07:54:06;99345.34;;;20.8;59
61500;BME280;47361;49.996;19.918;2023-08-12T07:56:05;99338.58;;;20.9;61
61500;BME280;47361;49.996;19.918;2023-08-12T07:57:05;99342.26999999999;;;21.0;57
61500;BME280;47361;49.996;19.918;2023-08-12T08:01:05;99344.45;;;20.9;57
61500;BME280;47361;49.996;19.918;2023-08-12T08:02:05;99338.64;;;21.0;57
61500;BME280;47361;49.996;19.918;2023-08-12T08:05:06;99332.59000000001;;;20.9;57
61500;BME280;47361;49.996;19.918;2023-08-12T08:06:05;99332.96;;;21.0;58
61500;BME280;47361;49.996;19.918;2023-08-12T08:08:05;99333.26;;;21.1;59
61500;BME280;47361;49.996;19.918;2023-08-12T08:10:06;99335.01;;;21.2;58
61500;BME280;47361;49.996;19.918;2023-08-12T08:12:07;99333.12;;;21.3;58
61500;BME280;47361;49.996;19.918;2023-08-12T08:13:05;99339.0;;;21.4;57
61500;BME280;47361;49.996;19.918;2023-08-12T08:17:05;99337.53;;;21.5;56
61500;BME280;47361;49.996;19.918;2023-08-12T08:19:05;99335.38;;;21.6;56
61500;BME280;47361;49.996;19.918;2023-08-12T08:21:05;99332.86;;;21.7;55
61500;BME280;47361;49.996;19.918;2023-08-12T08:22:05;99336.94;;;21.8;53
61500;BME280;47361;49.996;19.918;2023-08-12T08:24:06;99331.36;;;21.9;55
61500;BME280;47361;49.996;19.918;2023-08-12T08:26:05;99331.98;;;22.0;55
61500;BME280;47361;49.996;19.918;2023-08-12T08:28:05;99329.86;;;22.1;54
61500;BME280;47361;49.996;19.918;2023-08-12T08:31:05;99323.61;;;22.2;52
61500;BME280;47361;49.996;19.918;2023-08-12T08:37:05;99322.13;;;22.3;50
61500;BME280;47361;49.996;19.918;2023-08-12T08:39:05;99320.25;;;22.4;52
61500;BME280;47361;49.996;19.918;2023-08-12T08:41:05;99317.78;;;22.5;52
61500;BME280;47361;49.996;19.918;2023-08-12T08:42:05;99316.58;;;22.6;53
61500;BME280;47361;49.996;19.918;2023-08-12T08:43:06;99318.0;;;22.7;53
61500;BME280;47361;49.996;19.918;2023-08-12T08:46:05;99312.56;;;22.6;49
61500;BME280;47361;49.996;19.918;2023-08-12T08:47:05;99317.33;;;22.7;51
61500;BME280;47361;49.996;19.918;2023-08-12T08:52:05;99312.8;;;22.8;50
61500;BME280;47361;49.996;19.918;2023-08-12T08:55:06;99307.2;;;22.9;48
61500;BME280;47361;49.996;19.918;2023-08-12T08:58:05;99308.78;;;23.0;48
61500;BME280;47361;49.996;19.918;2023-08-12T09:01:05;99309.42;;;23.1;50
61500;BME280;47361;49.996;19.918;2023-08-12T09:02:05;99309.12;;;23.2;49
61500;BME280;47361;49.996;19.918;2023-08-12T09:03:05;99307.25;;;23.3;46
61500;BME280;47361;49.996;19.918;2023-08-12T09:06:06;99304.38;;;23.2;44
61500;BME280;47361;49.996;19.918;2023-08-12T09:07:05;99301.53;;;23.3;45
61500;BME280;47361;49.996;19.918;2023-08-12T09:12:06;99297.17000000001;;;23.4;46
61500;BME280;47361;49.996;19.918;2023-08-12T09:15:06;99299.1;;;23.5;46
61500;BME280;47361;49.996;19.918;2023-08-12T09:17:06;99298.38;;;23.6;48
61500;BME280;47361;49.996;19.918;2023-08-12T09:18:06;99297.99;;;23.7;47
61500;BME280;47361;49.996;19.918;2023-08-12T09:19:05;99300.43;;;23.8;47
61500;BME280;47361;49.996;19.918;2023-08-12T09:21:05;99294.62;;;23.9;47
61500;BME280;47361;49.996;19.918;2023-08-12T09:28:06;99288.95;;;24.0;47
61500;BME280;47361;49.996;19.918;2023-08-12T09:33:06;99290.72;;;24.1;46
61500;BME280;47361;49.996;19.918;2023-08-12T09:42:06;99284.38;;;24.2;45
61500;BME280;47361;49.996;19.918;2023-08-12T09:43:06;99284.67000000001;;;24.3;45
61500;BME280;47361;49.996;19.918;2023-08-12T09:45:06;99283.38;;;24.2;43
61500;BME280;47361;49.996;19.918;2023-08-12T09:46:05;99277.57;;;24.1;43
61500;BME280;47361;49.996;19.918;2023-08-12T09:47:06;99278.09;;;24.2;44
61500;BME280;47361;49.996;19.918;2023-08-12T09:48:06;99278.68999999999;;;24.1;42
61500;BME280;47361;49.996;19.918;2023-08-12T09:52:06;99277.21;;;24.2;45
61500;BME280;47361;49.996;19.918;2023-08-12T09:53:06;99275.95;;;24.3;43
61500;BME280;47361;49.996;19.918;2023-08-12T09:57:05;99280.86;;;24.4;45
61500;BME280;47361;49.996;19.918;2023-08-12T09:58:06;99284.48;;;24.5;45
61500;BME280;47361;49.996;19.918;2023-08-12T10:01:05;99279.94;;;24.4;43
61500;BME280;47361;49.996;19.918;2023-08-12T10:02:05;99275.14;;;24.5;43
61500;BME280;47361;49.996;19.918;2023-08-12T10:04:06;99272.40000000001;;;24.4;43
61500;BME280;47361;49.996;19.918;2023-08-12T10:07:05;99267.57;;;24.5;44
61500;BME280;47361;49.996;19.918;2023-08-12T10:09:05;99262.76000000001;;;24.6;44
61500;BME280;47361;49.996;19.918;2023-08-12T10:12:06;99267.62999999999;;;24.8;43
61500;BME280;47361;49.996;19.918;2023-08-12T10:15:06;99262.5;;;24.7;43
61500;BME280;47361;49.996;19.918;2023-08-12T10:16:06;99263.56;;;24.8;43
61500;BME280;47361;49.996;19.918;2023-08-12T10:18:05;99262.77;;;24.9;44
61500;BME280;47361;49.996;19.918;2023-08-12T10:20:06;99260.75;;;24.8;42
61500;BME280;47361;49.996;19.918;2023-08-12T10:22:05;99261.21;;;24.9;42
61500;BME280;47361;49.996;19.918;2023-08-12T10:23:05;99263.73;;;24.8;42
61500;BME280;47361;49.996;19.918;2023-08-12T10:24:06;99262.81;;;24.9;43
61500;BME280;47361;49.996;19.918;2023-08-12T10:26:06;99262.28;;;25.0;42
61500;BME280;47361;49.996;19.918;2023-08-12T10:30:06;99258.11;;;25.1;44
61500;BME280;47361;49.996;19.918;2023-08-12T10:31:05;99257.06;;;25.2;45
61500;BME280;47361;49.996;19.918;2023-08-12T10:32:05;99256.02;;;25.3;43
61500;BME280;47361;49.996;19.918;2023-08-12T10:33:05;99259.09;;;25.4;44
61500;BME280;47361;49.996;19.918;2023-08-12T10:35:06;99258.45000000001;;;25.5;41
61500;BME280;47361;49.996;19.918;2023-08-12T10:36:06;99254.42;;;25.4;41
61500;BME280;47361;49.996;19.918;2023-08-12T10:37:06;99249.44;;;25.5;42
61500;BME280;47361;49.996;19.918;2023-08-12T10:38:05;99252.76;;;25.6;43
61500;BME280;47361;49.996;19.918;2023-08-12T10:46:06;99239.99;;;25.5;41
61500;BME280;47361;49.996;19.918;2023-08-12T10:49:06;99240.59999999999;;;25.4;40
61500;BME280;47361;49.996;19.918;2023-08-12T10:52:05;99235.02;;;25.5;41
61500;BME280;47361;49.996;19.918;2023-08-12T10:57:07;99233.42;;;25.6;42
61500;BME280;47361;49.996;19.918;2023-08-12T10:59:05;99226.9;;;25.7;43
61500;BME280;47361;49.996;19.918;2023-08-12T11:02:06;99227.09;;;25.8;41
61500;BME280;47361;49.996;19.918;2023-08-12T11:06:05;99219.15000000001;;;25.9;41
61500;BME280;47361;49.996;19.918;2023-08-12T11:07:14;99218.78;;;26.0;41
61500;BME280;47361;49.996;19.918;2023-08-12T11:09:06;99219.26999999999;;;25.9;41
61500;BME280;47361;49.996;19.918;2023-08-12T11:10:09;99219.48;;;26.0;42
61500;BME280;47361;49.996;19.918;2023-08-12T11:12:06;99216.49;;;26.1;41
61500;BME280;47361;49.996;19.918;2023-08-12T11:15:06;99210.05;;;26.2;41
61500;BME280;47361;49.996;19.918;2023-08-12T11:16:06;99209.17;;;26.3;41
61500;BME280;47361;49.996;19.918;2023-08-12T11:17:11;99210.14;;;26.4;41
61500;BME280;47361;49.996;19.918;2023-08-12T11:19:06;99205.08;;;26.3;39
61500;BME280;47361;49.996;19.918;2023-08-12T11:20:06;99205.94;;;26.2;39
61500;BME280;47361;49.996;19.918;2023-08-12T11:22:06;99203.17;;;26.3;40
61500;BME280;47361;49.996;19.918;2023-08-12T11:24:06;99201.06;;;26.4;40
61500;BME280;47361;49.996;19.918;2023-08-12T11:26:06;99204.49;;;26.3;42
61500;BME280;47361;49.996;19.918;2023-08-12T11:27:06;99202.34;;;26.5;41
61500;BME280;47361;49.996;19.918;2023-08-12T11:29:08;99202.52;;;26.4;40
61500;BME280;47361;49.996;19.918;2023-08-12T11:32:06;99196.89;;;26.5;40
61500;BME280;47361;49.996;19.918;2023-08-12T11:34:06;99193.75;;;26.6;42
61500;BME280;47361;49.996;19.918;2023-08-12T11:35:06;99201.99;;;26.7;43
61500;BME280;47361;49.996;19.918;2023-08-12T11:36:06;99198.32;;;26.8;41
61500;BME280;47361;49.996;19.918;2023-08-12T11:37:06;99194.8;;;26.9;40
61500;BME280;47361;49.996;19.918;2023-08-12T11:40:06;99193.81;;;26.8;40
61500;BME280;47361;49.996;19.918;2023-08-12T11:41:06;99195.51;;;26.9;41
61500;BME280;47361;49.996;19.918;2023-08-12T11:42:06;99192.74;;;27.0;41
61500;BME280;47361;49.996;19.918;2023-08-12T11:45:06;99191.22;;;26.9;39
61500;BME280;47361;49.996;19.918;2023-08-12T11:46:06;99191.11;;;26.8;38
61500;BME280;47361;49.996;19.918;2023-08-12T11:47:06;99188.08;;;26.9;39
61500;BME280;47361;49.996;19.918;2023-08-12T11:48:06;99184.84;;;26.8;39
61500;BME280;47361;49.996;19.918;2023-08-12T11:49:06;99185.79999999999;;;26.9;40
61500;BME280;47361;49.996;19.918;2023-08-12T11:51:06;99184.03;;;27.0;40
61500;BME280;47361;49.996;19.918;2023-08-12T11:52:06;99182.42;;;27.2;41
61500;BME280;47361;49.996;19.918;2023-08-12T11:55:06;99180.06;;;27.3;40
61500;BME280;47361;49.996;19.918;2023-08-12T11:56:06;99176.79000000001;;;27.2;38
61500;BME280;47361;49.996;19.918;2023-08-12T11:57:06;99183.47;;;27.3;41
61500;BME280;47361;49.996;19.918;2023-08-12T12:02:06;99173.73999999999;;;27.4;38
61500;BME280;47361;49.996;19.918;2023-08-12T12:03:06;99171.04000000001;;;27.3;38
61500;BME280;47361;49.996;19.918;2023-08-12T12:06:06;99168.19;;;27.4;40
61500;BME280;47361;49.996;19.918;2023-08-12T12:07:16;99169.73000000001;;;27.5;40
61500;BME280;47361;49.996;19.918;2023-08-12T12:10:06;99166.8;;;27.4;37
61500;BME280;47361;49.996;19.918;2023-08-12T12:14:06;99163.25;;;27.5;39
61500;BME280;47361;49.996;19.918;2023-08-12T12:15:06;99162.78;;;27.4;37
61500;BME280;47361;49.996;19.918;2023-08-12T12:16:09;99157.67;;;27.5;38
61500;BME280;47361;49.996;19.918;2023-08-12T12:21:06;99160.72;;;27.4;36
61500;BME280;47361;49.996;19.918;2023-08-12T12:22:06;99156.12999999999;;;27.5;37
61500;BME280;47361;49.996;19.918;2023-08-12T12:25:06;99150.61;;;27.4;38
61500;BME280;47361;49.996;19.918;2023-08-12T12:26:06;99154.57;;;27.5;39
61500;BME280;47361;49.996;19.918;2023-08-12T12:29:06;99155.69;;;27.6;38
61500;BME280;47361;49.996;19.918;2023-08-12T12:31:06;99153.02;;;27.7;38
61500;BME280;47361;49.996;19.918;2023-08-12T12:32:06;99149.19;;;27.8;38
61500;BME280;47361;49.996;19.918;2023-08-12T12:33:06;99154.22;;;27.9;39
61500;BME280;47361;49.996;19.918;2023-08-12T12:35:06;99149.83;;;28.0;41
61500;BME280;47361;49.996;19.918;2023-08-12T12:36:06;99147.39;;;28.1;39
61500;BME280;47361;49.996;19.918;2023-08-12T12:39:06;99141.6;;;28.0;37
61500;BME280;47361;49.996;19.918;2023-08-12T12:42:06;99147.28;;;28.1;36
61500;BME280;47361;49.996;19.918;2023-08-12T12:43:06;99142.44;;;28.0;36
61500;BME280;47361;49.996;19.918;2023-08-12T12:45:06;99144.1;;;27.9;37
61500;BME280;47361;49.996;19.918;2023-08-12T12:47:06;99142.22;;;28.0;37
61500;BME280;47361;49.996;19.918;2023-08-12T12:50:06;99138.81;;;28.1;41
61500;BME280;47361;49.996;19.918;2023-08-12T12:51:06;99134.74;;;28.2;40
61500;BME280;47361;49.996;19.918;2023-08-12T12:52:06;99132.51000000001;;;28.4;40
61500;BME280;47361;49.996;19.918;2023-08-12T12:53:06;99134.64;;;28.5;39
61500;BME280;47361;49.996;19.918;2023-08-12T12:58:06;99125.28;;;28.6;39
61500;BME280;47361;49.996;19.918;2023-08-12T13:01:06;99119.70999999999;;;28.7;37
61500;BME280;47361;49.996;19.918;2023-08-12T13:06:06;99117.56;;;28.8;38
61500;BME280;47361;49.996;19.918;2023-08-12T13:07:06;99117.13;;;28.9;38
61500;BME280;47361;49.996;19.918;2023-08-12T13:11:06;99113.85;;;29.0;38
61500;BME280;47361;49.996;19.918;2023-08-12T13:12:06;99113.95;;;29.1;38
61500;BME280;47361;49.996;19.918;2023-08-12T13:15:06;99112.55;;;29.2;36
61500;BME280;47361;49.996;19.918;2023-08-12T13:16:06;99112.45999999999;;;29.1;35
61500;BME280;47361;49.996;19.918;2023-08-12T13:20:06;99105.92;;;29.0;35
61500;BME280;47361;49.996;19.918;2023-08-12T13:26:06;99104.74;;;29.1;37
61500;BME280;47361;49.996;19.918;2023-08-12T13:27:06;99100.09;;;29.2;36
61500;BME280;47361;49.996;19.918;2023-08-12T13:31:06;99102.72;;;29.4;39